الصفحة الرئيسية
METAR-TAF:

METAR-TAF

مطار :

قاعدة جوية عسكرية

Tulln an der Donau, النمسا

دائرة عرض: 48-19N, خط طول: 016-07E, ارتفاع: 175 متر

METAR: مفقودة

زمن: 02:56 (00:56 UTC)

توقعات

تاريخ ووقت الإصدار 13ساعات و 41 دقيقة قبل الساعة 11:15UTC
التوقعات صالحة من17 الساعة 12 UTC إلى 17 الساعة 21 UTC
ريح 8 عقدة من الشمال/الشمال الغربي
الرؤية 10 كم أو أكثر
غيوم قليلة على ارتفاع 4000 قدم
غيوم متفرقة على ارتفاع 6000 قدم
غيوم متفرقة على ارتفاع 10000 قدم

TAF: LOXT 171115Z 1712/1721 33008KT 9999 FEW040 SCT060 SCT100

أرصاد الطقس والتوقعات من أكثر من 4000 مطار (تقارير الطقس للمطار METAR والتنبؤ بالطقس بالمطارTAF).

المحطات المتاحة هي النقط الصفراء والحمراء على الخريطة.

حرك المؤشر فوق النقطة لمعرفة اسم المحطة.

ثم انقر لمعرفة أرصاد وتوقعات الطقس.

لتغيير الخارطة: اضغط على الأزرار الخضراء مع رمز الصليب الأسود للتكبير. على الزر الأخضر مع شرطة للتصغير، أو على الأسهم الخضراء للخرائط المجاورة.


METAR-TAF: